sensor_id;sensor_type;location;lat;lon;timestamp;P1;durP1;ratioP1;P2;durP2;ratioP2
9364;SDS011;4722;49.340;9.800;2023-03-02T00:01:35;18.38;;;9.98;;
9364;SDS011;4722;49.340;9.800;2023-03-02T00:04:03;22.23;;;9.95;;
9364;SDS011;4722;49.340;9.800;2023-03-02T00:06:31;22.98;;;9.93;;
9364;SDS011;4722;49.340;9.800;2023-03-02T00:08:59;19.30;;;7.88;;
9364;SDS011;4722;49.340;9.800;2023-03-02T00:11:26;22.23;;;10.38;;
9364;SDS011;4722;49.340;9.800;2023-03-02T00:13:52;18.45;;;10.32;;
9364;SDS011;4722;49.340;9.800;2023-03-02T00:16:18;24.63;;;11.02;;
9364;SDS011;4722;49.340;9.800;2023-03-02T00:18:44;22.52;;;10.73;;
9364;SDS011;4722;49.340;9.800;2023-03-02T00:21:10;21.77;;;10.30;;
9364;SDS011;4722;49.340;9.800;2023-03-02T00:23:36;26.20;;;11.07;;
9364;SDS011;4722;49.340;9.800;2023-03-02T00:26:03;20.08;;;9.52;;
9364;SDS011;4722;49.340;9.800;2023-03-02T00:28:29;22.55;;;9.88;;
9364;SDS011;4722;49.340;9.800;2023-03-02T00:30:55;22.17;;;9.50;;
9364;SDS011;4722;49.340;9.800;2023-03-02T00:33:21;23.38;;;11.18;;
9364;SDS011;4722;49.340;9.800;2023-03-02T00:35:47;27.98;;;11.85;;
9364;SDS011;4722;49.340;9.800;2023-03-02T00:38:13;18.80;;;9.02;;
9364;SDS011;4722;49.340;9.800;2023-03-02T00:40:46;20.80;;;9.23;;
9364;SDS011;4722;49.340;9.800;2023-03-02T00:43:13;17.85;;;8.73;;
9364;SDS011;4722;49.340;9.800;2023-03-02T00:45:39;24.08;;;10.00;;
9364;SDS011;4722;49.340;9.800;2023-03-02T00:48:05;24.90;;;12.10;;
9364;SDS011;4722;49.340;9.800;2023-03-02T00:50:31;25.08;;;10.98;;
9364;SDS011;4722;49.340;9.800;2023-03-02T00:52:57;29.05;;;11.65;;
9364;SDS011;4722;49.340;9.800;2023-03-02T00:55:23;26.65;;;9.70;;
9364;SDS011;4722;49.340;9.800;2023-03-02T00:57:53;23.80;;;8.93;;
9364;SDS011;4722;49.340;9.800;2023-03-02T01:00:22;20.45;;;8.25;;
9364;SDS011;4722;49.340;9.800;2023-03-02T01:02:49;19.48;;;9.98;;
9364;SDS011;4722;49.340;9.800;2023-03-02T01:05:15;21.17;;;9.90;;
9364;SDS011;4722;49.340;9.800;2023-03-02T01:07:41;17.60;;;8.73;;
9364;SDS011;4722;49.340;9.800;2023-03-02T01:10:07;16.77;;;9.10;;
9364;SDS011;4722;49.340;9.800;2023-03-02T01:12:34;13.95;;;8.68;;
9364;SDS011;4722;49.340;9.800;2023-03-02T01:15:00;27.77;;;10.40;;
9364;SDS011;4722;49.340;9.800;2023-03-02T01:17:26;25.48;;;10.55;;
9364;SDS011;4722;49.340;9.800;2023-03-02T01:19:51;20.40;;;8.90;;
9364;SDS011;4722;49.340;9.800;2023-03-02T01:22:18;25.67;;;9.18;;
9364;SDS011;4722;49.340;9.800;2023-03-02T01:24:44;23.67;;;9.38;;
9364;SDS011;4722;49.340;9.800;2023-03-02T01:27:10;26.13;;;10.93;;
9364;SDS011;4722;49.340;9.800;2023-03-02T01:29:36;19.30;;;9.18;;
9364;SDS011;4722;49.340;9.800;2023-03-02T01:32:02;13.38;;;7.95;;
9364;SDS011;4722;49.340;9.800;2023-03-02T01:34:28;27.58;;;11.68;;
9364;SDS011;4722;49.340;9.800;2023-03-02T01:36:54;14.07;;;7.97;;
9364;SDS011;4722;49.340;9.800;2023-03-02T01:39:20;23.40;;;11.05;;
9364;SDS011;4722;49.340;9.800;2023-03-02T01:41:47;20.50;;;9.30;;
9364;SDS011;4722;49.340;9.800;2023-03-02T01:46:58;18.52;;;9.73;;
9364;SDS011;4722;49.340;9.800;2023-03-02T01:49:25;24.55;;;9.68;;
9364;SDS011;4722;49.340;9.800;2023-03-02T01:51:51;23.42;;;10.98;;
9364;SDS011;4722;49.340;9.800;2023-03-02T01:54:18;25.40;;;9.63;;
9364;SDS011;4722;49.340;9.800;2023-03-02T01:56:48;19.67;;;10.68;;
9364;SDS011;4722;49.340;9.800;2023-03-02T01:59:16;19.42;;;10.18;;
9364;SDS011;4722;49.340;9.800;2023-03-02T02:01:44;24.55;;;11.55;;
9364;SDS011;4722;49.340;9.800;2023-03-02T02:04:11;17.42;;;8.32;;
9364;SDS011;4722;49.340;9.800;2023-03-02T02:06:50;22.77;;;11.45;;
9364;SDS011;4722;49.340;9.800;2023-03-02T02:09:17;25.70;;;10.40;;
9364;SDS011;4722;49.340;9.800;2023-03-02T02:11:45;21.83;;;8.98;;
9364;SDS011;4722;49.340;9.800;2023-03-02T02:14:11;18.02;;;9.57;;
9364;SDS011;4722;49.340;9.800;2023-03-02T02:16:37;20.50;;;9.00;;
9364;SDS011;4722;49.340;9.800;2023-03-02T02:19:05;18.23;;;9.82;;
9364;SDS011;4722;49.340;9.800;2023-03-02T02:21:34;18.73;;;8.93;;
9364;SDS011;4722;49.340;9.800;2023-03-02T02:24:08;25.90;;;10.55;;
9364;SDS011;4722;49.340;9.800;2023-03-02T02:26:43;22.77;;;10.40;;
9364;SDS011;4722;49.340;9.800;2023-03-02T02:29:17;16.75;;;8.20;;
9364;SDS011;4722;49.340;9.800;2023-03-02T02:31:47;26.70;;;9.25;;
9364;SDS011;4722;49.340;9.800;2023-03-02T02:34:20;20.27;;;9.80;;
9364;SDS011;4722;49.340;9.800;2023-03-02T02:36:53;20.25;;;9.68;;
9364;SDS011;4722;49.340;9.800;2023-03-02T02:39:30;16.77;;;8.98;;
9364;SDS011;4722;49.340;9.800;2023-03-02T02:41:59;17.73;;;10.93;;
9364;SDS011;4722;49.340;9.800;2023-03-02T02:44:31;18.27;;;8.77;;
9364;SDS011;4722;49.340;9.800;2023-03-02T02:46:57;20.45;;;8.15;;
9364;SDS011;4722;49.340;9.800;2023-03-02T02:49:28;21.50;;;10.45;;
9364;SDS011;4722;49.340;9.800;2023-03-02T02:51:54;18.65;;;10.13;;
9364;SDS011;4722;49.340;9.800;2023-03-02T02:54:21;26.70;;;10.05;;
9364;SDS011;4722;49.340;9.800;2023-03-02T02:56:47;22.50;;;11.30;;
9364;SDS011;4722;49.340;9.800;2023-03-02T02:59:15;27.15;;;10.13;;
9364;SDS011;4722;49.340;9.800;2023-03-02T03:01:42;21.42;;;9.52;;
9364;SDS011;4722;49.340;9.800;2023-03-02T03:04:09;24.35;;;11.32;;
9364;SDS011;4722;49.340;9.800;2023-03-02T03:06:37;21.55;;;10.02;;
9364;SDS011;4722;49.340;9.800;2023-03-02T03:09:13;22.70;;;9.48;;
9364;SDS011;4722;49.340;9.800;2023-03-02T03:11:40;18.65;;;8.75;;
9364;SDS011;4722;49.340;9.800;2023-03-02T03:14:08;21.98;;;11.43;;
9364;SDS011;4722;49.340;9.800;2023-03-02T03:16:35;22.40;;;9.75;;
9364;SDS011;4722;49.340;9.800;2023-03-02T03:21:37;26.92;;;11.50;;
9364;SDS011;4722;49.340;9.800;2023-03-02T03:24:03;20.67;;;9.93;;
9364;SDS011;4722;49.340;9.800;2023-03-02T03:26:29;25.77;;;10.52;;
9364;SDS011;4722;49.340;9.800;2023-03-02T03:28:55;22.20;;;11.00;;
9364;SDS011;4722;49.340;9.800;2023-03-02T03:31:24;22.15;;;10.13;;
9364;SDS011;4722;49.340;9.800;2023-03-02T03:33:52;21.23;;;9.35;;
9364;SDS011;4722;49.340;9.800;2023-03-02T03:36:18;33.17;;;11.77;;
9364;SDS011;4722;49.340;9.800;2023-03-02T03:38:44;29.90;;;12.25;;
9364;SDS011;4722;49.340;9.800;2023-03-02T03:41:10;25.38;;;10.77;;
9364;SDS011;4722;49.340;9.800;2023-03-02T03:43:36;20.23;;;9.10;;
9364;SDS011;4722;49.340;9.800;2023-03-02T03:46:02;18.90;;;9.55;;
9364;SDS011;4722;49.340;9.800;2023-03-02T03:48:28;27.85;;;11.13;;
9364;SDS011;4722;49.340;9.800;2023-03-02T03:50:54;22.73;;;9.40;;
9364;SDS011;4722;49.340;9.800;2023-03-02T03:53:20;20.80;;;9.88;;
9364;SDS011;4722;49.340;9.800;2023-03-02T03:55:46;19.08;;;10.93;;
9364;SDS011;4722;49.340;9.800;2023-03-02T03:58:14;22.67;;;10.23;;
9364;SDS011;4722;49.340;9.800;2023-03-02T04:00:40;18.42;;;10.45;;
9364;SDS011;4722;49.340;9.800;2023-03-02T04:03:06;27.83;;;10.63;;
9364;SDS011;4722;49.340;9.800;2023-03-02T04:05:32;25.15;;;10.80;;
9364;SDS011;4722;49.340;9.800;2023-03-02T04:07:58;16.30;;;7.50;;
9364;SDS011;4722;49.340;9.800;2023-03-02T04:10:26;29.92;;;11.55;;
9364;SDS011;4722;49.340;9.800;2023-03-02T04:12:52;20.55;;;9.32;;
9364;SDS011;4722;49.340;9.800;2023-03-02T04:15:18;21.35;;;9.60;;
9364;SDS011;4722;49.340;9.800;2023-03-02T04:17:44;17.65;;;9.70;;
9364;SDS011;4722;49.340;9.800;2023-03-02T04:20:11;36.72;;;11.90;;
9364;SDS011;4722;49.340;9.800;2023-03-02T04:22:40;20.95;;;11.15;;
9364;SDS011;4722;49.340;9.800;2023-03-02T04:25:06;24.27;;;10.65;;
9364;SDS011;4722;49.340;9.800;2023-03-02T04:27:32;17.27;;;8.25;;
9364;SDS011;4722;49.340;9.800;2023-03-02T04:29:58;19.90;;;8.77;;
9364;SDS011;4722;49.340;9.800;2023-03-02T04:32:24;19.83;;;10.15;;
9364;SDS011;4722;49.340;9.800;2023-03-02T04:34:50;17.17;;;8.43;;
9364;SDS011;4722;49.340;9.800;2023-03-02T04:37:16;25.90;;;10.40;;
9364;SDS011;4722;49.340;9.800;2023-03-02T04:39:42;19.83;;;9.85;;
9364;SDS011;4722;49.340;9.800;2023-03-02T04:42:11;27.60;;;9.90;;
9364;SDS011;4722;49.340;9.800;2023-03-02T04:44:37;23.95;;;10.32;;
9364;SDS011;4722;49.340;9.800;2023-03-02T04:47:03;21.05;;;10.10;;
9364;SDS011;4722;49.340;9.800;2023-03-02T04:49:28;19.75;;;9.77;;
9364;SDS011;4722;49.340;9.800;2023-03-02T04:51:54;25.30;;;10.15;;
9364;SDS011;4722;49.340;9.800;2023-03-02T04:54:24;21.52;;;8.95;;
9364;SDS011;4722;49.340;9.800;2023-03-02T04:56:51;19.75;;;9.98;;
9364;SDS011;4722;49.340;9.800;2023-03-02T04:59:18;28.75;;;8.00;;
9364;SDS011;4722;49.340;9.800;2023-03-02T05:01:46;25.73;;;9.88;;
9364;SDS011;4722;49.340;9.800;2023-03-02T05:04:12;17.88;;;8.50;;
9364;SDS011;4722;49.340;9.800;2023-03-02T05:06:38;16.55;;;7.90;;
9364;SDS011;4722;49.340;9.800;2023-03-02T05:09:05;18.30;;;8.45;;
9364;SDS011;4722;49.340;9.800;2023-03-02T05:11:31;18.85;;;9.52;;
9364;SDS011;4722;49.340;9.800;2023-03-02T05:13:59;20.83;;;8.95;;
9364;SDS011;4722;49.340;9.800;2023-03-02T05:16:26;23.98;;;10.05;;
9364;SDS011;4722;49.340;9.800;2023-03-02T05:18:53;19.52;;;8.18;;
9364;SDS011;4722;49.340;9.800;2023-03-02T05:21:19;20.23;;;7.53;;
9364;SDS011;4722;49.340;9.800;2023-03-02T05:23:45;16.25;;;7.63;;
9364;SDS011;4722;49.340;9.800;2023-03-02T05:26:12;17.35;;;9.57;;
9364;SDS011;4722;49.340;9.800;2023-03-02T05:28:38;21.75;;;9.35;;
9364;SDS011;4722;49.340;9.800;2023-03-02T05:31:03;18.00;;;9.10;;
9364;SDS011;4722;49.340;9.800;2023-03-02T05:33:30;20.08;;;8.25;;
9364;SDS011;4722;49.340;9.800;2023-03-02T05:35:56;19.33;;;8.82;;
9364;SDS011;4722;49.340;9.800;2023-03-02T05:38:22;18.33;;;9.73;;
9364;SDS011;4722;49.340;9.800;2023-03-02T05:40:48;20.45;;;9.38;;
9364;SDS011;4722;49.340;9.800;2023-03-02T05:43:15;25.30;;;11.65;;
9364;SDS011;4722;49.340;9.800;2023-03-02T05:45:41;22.58;;;8.27;;
9364;SDS011;4722;49.340;9.800;2023-03-02T05:48:07;22.25;;;10.70;;
9364;SDS011;4722;49.340;9.800;2023-03-02T05:50:33;17.25;;;10.07;;
9364;SDS011;4722;49.340;9.800;2023-03-02T05:52:59;17.27;;;8.70;;
9364;SDS011;4722;49.340;9.800;2023-03-02T05:55:26;22.77;;;8.18;;
9364;SDS011;4722;49.340;9.800;2023-03-02T05:57:52;16.27;;;7.88;;
9364;SDS011;4722;49.340;9.800;2023-03-02T06:00:19;26.85;;;10.88;;
9364;SDS011;4722;49.340;9.800;2023-03-02T06:02:45;27.33;;;9.88;;
9364;SDS011;4722;49.340;9.800;2023-03-02T06:05:13;46.35;;;11.10;;
9364;SDS011;4722;49.340;9.800;2023-03-02T06:07:39;21.67;;;9.32;;
9364;SDS011;4722;49.340;9.800;2023-03-02T06:10:06;20.60;;;10.23;;
9364;SDS011;4722;49.340;9.800;2023-03-02T06:12:32;22.33;;;9.73;;
9364;SDS011;4722;49.340;9.800;2023-03-02T06:14:58;36.20;;;9.77;;
9364;SDS011;4722;49.340;9.800;2023-03-02T06:17:25;19.80;;;9.40;;
9364;SDS011;4722;49.340;9.800;2023-03-02T06:19:51;19.05;;;9.50;;
9364;SDS011;4722;49.340;9.800;2023-03-02T06:22:17;25.40;;;12.95;;
9364;SDS011;4722;49.340;9.800;2023-03-02T06:24:43;19.52;;;10.50;;
9364;SDS011;4722;49.340;9.800;2023-03-02T06:27:09;19.88;;;8.73;;
9364;SDS011;4722;49.340;9.800;2023-03-02T06:29:35;20.13;;;10.55;;
9364;SDS011;4722;49.340;9.800;2023-03-02T06:32:01;22.52;;;10.93;;
9364;SDS011;4722;49.340;9.800;2023-03-02T06:34:27;18.38;;;9.20;;
9364;SDS011;4722;49.340;9.800;2023-03-02T06:36:53;16.00;;;7.45;;
9364;SDS011;4722;49.340;9.800;2023-03-02T06:39:19;12.85;;;7.43;;
9364;SDS011;4722;49.340;9.800;2023-03-02T06:41:45;26.20;;;9.65;;
9364;SDS011;4722;49.340;9.800;2023-03-02T06:44:12;19.02;;;8.00;;
9364;SDS011;4722;49.340;9.800;2023-03-02T06:46:38;18.20;;;8.95;;
9364;SDS011;4722;49.340;9.800;2023-03-02T06:49:06;23.73;;;10.98;;
9364;SDS011;4722;49.340;9.800;2023-03-02T06:51:31;17.85;;;8.95;;
9364;SDS011;4722;49.340;9.800;2023-03-02T06:53:57;17.60;;;7.00;;
9364;SDS011;4722;49.340;9.800;2023-03-02T06:56:23;21.13;;;10.63;;
9364;SDS011;4722;49.340;9.800;2023-03-02T06:58:49;16.65;;;8.63;;
9364;SDS011;4722;49.340;9.800;2023-03-02T07:01:15;20.92;;;10.07;;
9364;SDS011;4722;49.340;9.800;2023-03-02T07:03:41;20.98;;;9.25;;
9364;SDS011;4722;49.340;9.800;2023-03-02T07:06:08;17.85;;;8.77;;
9364;SDS011;4722;49.340;9.800;2023-03-02T07:08:34;24.27;;;10.35;;
9364;SDS011;4722;49.340;9.800;2023-03-02T07:11:03;22.48;;;8.63;;
9364;SDS011;4722;49.340;9.800;2023-03-02T07:13:29;22.58;;;10.68;;
9364;SDS011;4722;49.340;9.800;2023-03-02T07:15:55;19.75;;;9.85;;
9364;SDS011;4722;49.340;9.800;2023-03-02T07:18:21;19.98;;;9.40;;
9364;SDS011;4722;49.340;9.800;2023-03-02T07:20:47;14.05;;;7.63;;
9364;SDS011;4722;49.340;9.800;2023-03-02T07:23:13;19.30;;;9.48;;
9364;SDS011;4722;49.340;9.800;2023-03-02T07:25:39;23.33;;;10.82;;
9364;SDS011;4722;49.340;9.800;2023-03-02T07:28:05;20.27;;;10.40;;
9364;SDS011;4722;49.340;9.800;2023-03-02T07:30:31;18.58;;;9.75;;
9364;SDS011;4722;49.340;9.800;2023-03-02T07:32:57;19.45;;;8.02;;
9364;SDS011;4722;49.340;9.800;2023-03-02T07:35:23;23.20;;;10.02;;
9364;SDS011;4722;49.340;9.800;2023-03-02T07:37:50;18.63;;;7.10;;
9364;SDS011;4722;49.340;9.800;2023-03-02T07:40:16;25.45;;;9.07;;
9364;SDS011;4722;49.340;9.800;2023-03-02T07:42:42;15.38;;;7.07;;
9364;SDS011;4722;49.340;9.800;2023-03-02T07:45:08;20.95;;;10.52;;
9364;SDS011;4722;49.340;9.800;2023-03-02T07:47:35;19.92;;;9.43;;
9364;SDS011;4722;49.340;9.800;2023-03-02T07:50:00;18.08;;;8.20;;
9364;SDS011;4722;49.340;9.800;2023-03-02T07:52:27;17.33;;;9.40;;
9364;SDS011;4722;49.340;9.800;2023-03-02T07:54:54;21.00;;;9.38;;
9364;SDS011;4722;49.340;9.800;2023-03-02T07:57:20;19.48;;;9.82;;
9364;SDS011;4722;49.340;9.800;2023-03-02T07:59:46;24.42;;;8.38;;
9364;SDS011;4722;49.340;9.800;2023-03-02T08:02:13;19.20;;;8.35;;
9364;SDS011;4722;49.340;9.800;2023-03-02T08:04:39;15.02;;;7.85;;
9364;SDS011;4722;49.340;9.800;2023-03-02T08:07:05;12.57;;;7.03;;
9364;SDS011;4722;49.340;9.800;2023-03-02T08:09:31;17.58;;;9.05;;
9364;SDS011;4722;49.340;9.800;2023-03-02T08:11:57;20.98;;;9.07;;
9364;SDS011;4722;49.340;9.800;2023-03-02T08:14:25;27.52;;;9.20;;
9364;SDS011;4722;49.340;9.800;2023-03-02T08:16:51;21.75;;;9.05;;
9364;SDS011;4722;49.340;9.800;2023-03-02T08:19:17;27.75;;;9.20;;
9364;SDS011;4722;49.340;9.800;2023-03-02T08:21:43;14.98;;;7.28;;
9364;SDS011;4722;49.340;9.800;2023-03-02T08:24:10;22.27;;;8.00;;
9364;SDS011;4722;49.340;9.800;2023-03-02T08:26:37;24.08;;;10.10;;
9364;SDS011;4722;49.340;9.800;2023-03-02T08:29:03;20.33;;;8.32;;
9364;SDS011;4722;49.340;9.800;2023-03-02T08:31:30;22.92;;;8.43;;
9364;SDS011;4722;49.340;9.800;2023-03-02T08:33:56;19.98;;;9.38;;
9364;SDS011;4722;49.340;9.800;2023-03-02T08:36:23;16.90;;;7.75;;
9364;SDS011;4722;49.340;9.800;2023-03-02T08:38:49;17.48;;;8.80;;
9364;SDS011;4722;49.340;9.800;2023-03-02T08:41:19;18.05;;;7.57;;
9364;SDS011;4722;49.340;9.800;2023-03-02T08:43:45;20.35;;;7.97;;
9364;SDS011;4722;49.340;9.800;2023-03-02T08:46:11;14.27;;;6.43;;
9364;SDS011;4722;49.340;9.800;2023-03-02T08:48:38;14.85;;;7.63;;
9364;SDS011;4722;49.340;9.800;2023-03-02T08:51:08;14.77;;;6.78;;
9364;SDS011;4722;49.340;9.800;2023-03-02T08:53:39;16.92;;;7.20;;
9364;SDS011;4722;49.340;9.800;2023-03-02T08:56:39;15.98;;;7.28;;
9364;SDS011;4722;49.340;9.800;2023-03-02T08:58:59;16.75;;;7.20;;
9364;SDS011;4722;49.340;9.800;2023-03-02T09:01:26;24.42;;;7.90;;
9364;SDS011;4722;49.340;9.800;2023-03-02T09:03:53;16.83;;;6.80;;
9364;SDS011;4722;49.340;9.800;2023-03-02T09:06:19;17.00;;;7.63;;
9364;SDS011;4722;49.340;9.800;2023-03-02T09:08:45;18.65;;;8.15;;
9364;SDS011;4722;49.340;9.800;2023-03-02T09:11:11;28.67;;;6.78;;
9364;SDS011;4722;49.340;9.800;2023-03-02T09:13:37;15.20;;;7.22;;
9364;SDS011;4722;49.340;9.800;2023-03-02T09:16:04;19.73;;;6.70;;
9364;SDS011;4722;49.340;9.800;2023-03-02T09:18:32;17.00;;;7.05;;
9364;SDS011;4722;49.340;9.800;2023-03-02T09:20:58;12.60;;;7.35;;
9364;SDS011;4722;49.340;9.800;2023-03-02T09:23:24;15.05;;;6.97;;
9364;SDS011;4722;49.340;9.800;2023-03-02T09:25:51;18.50;;;8.57;;
9364;SDS011;4722;49.340;9.800;2023-03-02T09:28:16;15.57;;;7.82;;
9364;SDS011;4722;49.340;9.800;2023-03-02T09:30:53;17.55;;;6.32;;
9364;SDS011;4722;49.340;9.800;2023-03-02T09:33:21;20.70;;;7.15;;
9364;SDS011;4722;49.340;9.800;2023-03-02T09:35:47;13.93;;;7.07;;
9364;SDS011;4722;49.340;9.800;2023-03-02T09:38:14;17.13;;;7.43;;
9364;SDS011;4722;49.340;9.800;2023-03-02T09:40:59;14.13;;;7.07;;
9364;SDS011;4722;49.340;9.800;2023-03-02T09:43:30;20.80;;;8.32;;
9364;SDS011;4722;49.340;9.800;2023-03-02T09:48:46;17.33;;;7.85;;
9364;SDS011;4722;49.340;9.800;2023-03-02T09:51:30;18.35;;;7.20;;
9364;SDS011;4722;49.340;9.800;2023-03-02T09:54:19;13.45;;;6.70;;
9364;SDS011;4722;49.340;9.800;2023-03-02T09:56:47;14.75;;;6.85;;
9364;SDS011;4722;49.340;9.800;2023-03-02T09:59:37;19.27;;;7.30;;
9364;SDS011;4722;49.340;9.800;2023-03-02T10:04:49;16.88;;;7.10;;
9364;SDS011;4722;49.340;9.800;2023-03-02T10:07:30;20.98;;;7.65;;
9364;SDS011;4722;49.340;9.800;2023-03-02T10:10:22;16.90;;;8.48;;
9364;SDS011;4722;49.340;9.800;2023-03-02T10:15:36;17.30;;;6.53;;
9364;SDS011;4722;49.340;9.800;2023-03-02T10:20:44;16.55;;;7.38;;
9364;SDS011;4722;49.340;9.800;2023-03-02T10:23:30;16.02;;;7.55;;
9364;SDS011;4722;49.340;9.800;2023-03-02T10:26:03;21.40;;;7.18;;
9364;SDS011;4722;49.340;9.800;2023-03-02T10:28:54;17.88;;;6.90;;
9364;SDS011;4722;49.340;9.800;2023-03-02T10:31:27;16.58;;;6.85;;
9364;SDS011;4722;49.340;9.800;2023-03-02T10:33:53;18.85;;;7.10;;
9364;SDS011;4722;49.340;9.800;2023-03-02T10:36:21;19.05;;;7.85;;
9364;SDS011;4722;49.340;9.800;2023-03-02T10:38:52;14.00;;;7.13;;
9364;SDS011;4722;49.340;9.800;2023-03-02T10:41:22;18.25;;;7.22;;
9364;SDS011;4722;49.340;9.800;2023-03-02T10:43:51;13.23;;;6.68;;
9364;SDS011;4722;49.340;9.800;2023-03-02T10:46:19;18.67;;;7.13;;
9364;SDS011;4722;49.340;9.800;2023-03-02T10:48:46;17.13;;;7.40;;
9364;SDS011;4722;49.340;9.800;2023-03-02T10:51:22;19.27;;;7.88;;
9364;SDS011;4722;49.340;9.800;2023-03-02T10:53:48;14.68;;;6.68;;
9364;SDS011;4722;49.340;9.800;2023-03-02T10:56:18;18.67;;;7.00;;
9364;SDS011;4722;49.340;9.800;2023-03-02T10:58:45;18.50;;;7.20;;
9364;SDS011;4722;49.340;9.800;2023-03-02T11:01:15;18.23;;;7.32;;
9364;SDS011;4722;49.340;9.800;2023-03-02T11:03:42;15.65;;;7.72;;
9364;SDS011;4722;49.340;9.800;2023-03-02T11:06:19;13.10;;;6.40;;
9364;SDS011;4722;49.340;9.800;2023-03-02T11:08:46;13.25;;;5.55;;
9364;SDS011;4722;49.340;9.800;2023-03-02T11:11:23;11.85;;;5.75;;
9364;SDS011;4722;49.340;9.800;2023-03-02T11:13:49;15.13;;;5.57;;
9364;SDS011;4722;49.340;9.800;2023-03-02T11:18:45;10.43;;;5.47;;
9364;SDS011;4722;49.340;9.800;2023-03-02T11:21:20;17.65;;;7.07;;
9364;SDS011;4722;49.340;9.800;2023-03-02T11:23:51;13.68;;;6.00;;
9364;SDS011;4722;49.340;9.800;2023-03-02T11:26:27;14.30;;;5.60;;
9364;SDS011;4722;49.340;9.800;2023-03-02T11:28:58;17.85;;;6.78;;
9364;SDS011;4722;49.340;9.800;2023-03-02T11:31:28;12.18;;;6.13;;
9364;SDS011;4722;49.340;9.800;2023-03-02T11:34:04;14.38;;;5.47;;
9364;SDS011;4722;49.340;9.800;2023-03-02T11:39:35;13.77;;;5.45;;
9364;SDS011;4722;49.340;9.800;2023-03-02T11:42:03;16.60;;;5.95;;
9364;SDS011;4722;49.340;9.800;2023-03-02T11:44:29;15.80;;;6.47;;
9364;SDS011;4722;49.340;9.800;2023-03-02T11:46:58;13.30;;;6.10;;
9364;SDS011;4722;49.340;9.800;2023-03-02T11:49:34;12.57;;;5.25;;
9364;SDS011;4722;49.340;9.800;2023-03-02T11:52:01;14.32;;;6.38;;
9364;SDS011;4722;49.340;9.800;2023-03-02T11:54:43;16.00;;;5.68;;
9364;SDS011;4722;49.340;9.800;2023-03-02T11:57:18;14.85;;;7.38;;
9364;SDS011;4722;49.340;9.800;2023-03-02T11:59:45;10.82;;;5.40;;
9364;SDS011;4722;49.340;9.800;2023-03-02T12:02:12;17.95;;;7.05;;
9364;SDS011;4722;49.340;9.800;2023-03-02T12:04:38;13.95;;;6.03;;
9364;SDS011;4722;49.340;9.800;2023-03-02T12:07:18;11.63;;;5.00;;
9364;SDS011;4722;49.340;9.800;2023-03-02T12:14:59;11.57;;;5.50;;
9364;SDS011;4722;49.340;9.800;2023-03-02T12:20:05;17.88;;;5.88;;
9364;SDS011;4722;49.340;9.800;2023-03-02T12:22:31;14.93;;;6.15;;
9364;SDS011;4722;49.340;9.800;2023-03-02T12:25:06;10.25;;;5.10;;
9364;SDS011;4722;49.340;9.800;2023-03-02T12:27:49;13.55;;;5.03;;
9364;SDS011;4722;49.340;9.800;2023-03-02T12:32:59;9.98;;;5.30;;
9364;SDS011;4722;49.340;9.800;2023-03-02T12:35:25;13.07;;;5.88;;
9364;SDS011;4722;49.340;9.800;2023-03-02T12:37:57;16.20;;;6.57;;
9364;SDS011;4722;49.340;9.800;2023-03-02T12:46:01;14.15;;;5.20;;
9364;SDS011;4722;49.340;9.800;2023-03-02T12:51:01;15.95;;;4.90;;
9364;SDS011;4722;49.340;9.800;2023-03-02T12:53:28;13.68;;;5.70;;
9364;SDS011;4722;49.340;9.800;2023-03-02T12:55:54;12.20;;;5.95;;
9364;SDS011;4722;49.340;9.800;2023-03-02T12:58:27;11.98;;;4.93;;
9364;SDS011;4722;49.340;9.800;2023-03-02T13:00:55;16.60;;;5.60;;
9364;SDS011;4722;49.340;9.800;2023-03-02T13:03:21;13.52;;;6.35;;
9364;SDS011;4722;49.340;9.800;2023-03-02T13:05:47;14.82;;;5.28;;
9364;SDS011;4722;49.340;9.800;2023-03-02T13:10:41;13.25;;;4.70;;
9364;SDS011;4722;49.340;9.800;2023-03-02T13:13:15;12.52;;;5.45;;
9364;SDS011;4722;49.340;9.800;2023-03-02T13:15:51;15.00;;;4.88;;
9364;SDS011;4722;49.340;9.800;2023-03-02T13:18:18;13.00;;;6.90;;
9364;SDS011;4722;49.340;9.800;2023-03-02T13:20:45;16.15;;;6.10;;
9364;SDS011;4722;49.340;9.800;2023-03-02T13:23:14;14.20;;;5.35;;
9364;SDS011;4722;49.340;9.800;2023-03-02T13:28:21;10.13;;;5.57;;
9364;SDS011;4722;49.340;9.800;2023-03-02T13:30:49;12.23;;;5.63;;
9364;SDS011;4722;49.340;9.800;2023-03-02T13:33:21;14.55;;;4.93;;
9364;SDS011;4722;49.340;9.800;2023-03-02T13:35:49;11.98;;;5.93;;
9364;SDS011;4722;49.340;9.800;2023-03-02T13:38:16;12.57;;;5.75;;
9364;SDS011;4722;49.340;9.800;2023-03-02T13:40:44;15.93;;;6.20;;
9364;SDS011;4722;49.340;9.800;2023-03-02T13:43:18;12.93;;;4.65;;
9364;SDS011;4722;49.340;9.800;2023-03-02T13:45:52;14.57;;;5.82;;
9364;SDS011;4722;49.340;9.800;2023-03-02T13:48:19;8.85;;;5.22;;
9364;SDS011;4722;49.340;9.800;2023-03-02T13:50:52;12.13;;;4.82;;
9364;SDS011;4722;49.340;9.800;2023-03-02T13:53:18;11.88;;;4.85;;
9364;SDS011;4722;49.340;9.800;2023-03-02T13:55:44;14.02;;;5.03;;
9364;SDS011;4722;49.340;9.800;2023-03-02T13:58:12;9.23;;;4.72;;
9364;SDS011;4722;49.340;9.800;2023-03-02T14:00:40;14.82;;;5.38;;
9364;SDS011;4722;49.340;9.800;2023-03-02T14:03:10;14.00;;;5.53;;
9364;SDS011;4722;49.340;9.800;2023-03-02T14:06:01;14.70;;;6.05;;
9364;SDS011;4722;49.340;9.800;2023-03-02T14:08:29;16.80;;;5.72;;
9364;SDS011;4722;49.340;9.800;2023-03-02T14:10:56;10.45;;;4.80;;
9364;SDS011;4722;49.340;9.800;2023-03-02T14:13:24;14.70;;;4.22;;
9364;SDS011;4722;49.340;9.800;2023-03-02T14:15:50;10.63;;;4.30;;
9364;SDS011;4722;49.340;9.800;2023-03-02T14:21:02;10.45;;;5.20;;
9364;SDS011;4722;49.340;9.800;2023-03-02T14:23:28;13.18;;;4.60;;
9364;SDS011;4722;49.340;9.800;2023-03-02T14:25:54;12.00;;;4.47;;
9364;SDS011;4722;49.340;9.800;2023-03-02T14:28:31;12.25;;;5.20;;
9364;SDS011;4722;49.340;9.800;2023-03-02T14:30:59;9.68;;;4.10;;
9364;SDS011;4722;49.340;9.800;2023-03-02T14:33:25;12.75;;;5.50;;
9364;SDS011;4722;49.340;9.800;2023-03-02T14:35:52;13.88;;;4.55;;
9364;SDS011;4722;49.340;9.800;2023-03-02T14:38:19;16.40;;;4.50;;
9364;SDS011;4722;49.340;9.800;2023-03-02T14:40:46;8.98;;;4.10;;
9364;SDS011;4722;49.340;9.800;2023-03-02T14:43:11;10.40;;;4.97;;
9364;SDS011;4722;49.340;9.800;2023-03-02T14:45:37;14.57;;;5.28;;
9364;SDS011;4722;49.340;9.800;2023-03-02T14:48:03;9.35;;;3.72;;
9364;SDS011;4722;49.340;9.800;2023-03-02T14:50:30;9.63;;;3.88;;
9364;SDS011;4722;49.340;9.800;2023-03-02T14:52:57;15.82;;;4.05;;
9364;SDS011;4722;49.340;9.800;2023-03-02T14:55:24;9.43;;;3.40;;
9364;SDS011;4722;49.340;9.800;2023-03-02T14:57:58;12.75;;;3.45;;
9364;SDS011;4722;49.340;9.800;2023-03-02T15:00:26;12.02;;;3.85;;
9364;SDS011;4722;49.340;9.800;2023-03-02T15:02:52;17.17;;;4.05;;
9364;SDS011;4722;49.340;9.800;2023-03-02T15:05:18;10.45;;;4.88;;
9364;SDS011;4722;49.340;9.800;2023-03-02T15:07:44;7.00;;;3.00;;
9364;SDS011;4722;49.340;9.800;2023-03-02T15:10:11;9.05;;;3.22;;
9364;SDS011;4722;49.340;9.800;2023-03-02T15:12:38;9.45;;;4.15;;
9364;SDS011;4722;49.340;9.800;2023-03-02T15:15:04;9.35;;;3.72;;
9364;SDS011;4722;49.340;9.800;2023-03-02T15:17:30;10.40;;;3.97;;
9364;SDS011;4722;49.340;9.800;2023-03-02T15:19:56;10.82;;;4.03;;
9364;SDS011;4722;49.340;9.800;2023-03-02T15:22:22;11.05;;;3.92;;
9364;SDS011;4722;49.340;9.800;2023-03-02T15:24:48;14.93;;;3.80;;
9364;SDS011;4722;49.340;9.800;2023-03-02T15:27:14;9.38;;;4.28;;
9364;SDS011;4722;49.340;9.800;2023-03-02T15:29:44;14.57;;;5.72;;
9364;SDS011;4722;49.340;9.800;2023-03-02T15:32:10;13.32;;;5.00;;
9364;SDS011;4722;49.340;9.800;2023-03-02T15:34:36;11.48;;;4.55;;
9364;SDS011;4722;49.340;9.800;2023-03-02T15:37:02;13.60;;;3.90;;
9364;SDS011;4722;49.340;9.800;2023-03-02T15:39:28;10.50;;;3.95;;
9364;SDS011;4722;49.340;9.800;2023-03-02T15:41:54;10.75;;;4.30;;
9364;SDS011;4722;49.340;9.800;2023-03-02T15:44:21;13.95;;;4.75;;
9364;SDS011;4722;49.340;9.800;2023-03-02T15:46:48;14.13;;;4.22;;
9364;SDS011;4722;49.340;9.800;2023-03-02T15:49:15;12.70;;;4.45;;
9364;SDS011;4722;49.340;9.800;2023-03-02T15:51:45;8.48;;;4.03;;
9364;SDS011;4722;49.340;9.800;2023-03-02T15:54:11;7.45;;;2.78;;